Time;durP1;ratioP1;P1;durP2;ratioP2;P2;SDS_P1;SDS_P2;PMS_P1;PMS_P2;Temp;Humidity;BMP_temperature;BMP_pressure;BME280_temperature;BME280_humidity;BME280_pressure;Samples;Min_cycle;Max_cycle;Signal;HPM_P1;HPM_P2
2022/09/10 00:01:33;;;;;;;2.40;2.17;;;14.80;99.90;;;;;;4988818;28;20521;-49
2022/09/10 00:04:01;;;;;;;7.00;1.67;;;14.80;99.90;;;;;;4992216;28;20493;-50
2022/09/10 00:06:29;;;;;;;2.07;1.60;;;14.90;99.90;;;;;;4988382;28;20480;-51
2022/09/10 00:08:57;;;;;;;3.17;1.63;;;14.80;99.90;;;;;;4990754;28;20503;-50
2022/09/10 00:11:30;;;;;;;2.73;1.60;;;14.80;99.90;;;;;;4987431;28;20465;-51
2022/09/10 00:13:57;;;;;;;6.33;2.00;;;14.80;99.90;;;;;;4988796;28;20461;-50
2022/09/10 00:16:25;;;;;;;2.40;1.60;;;14.80;99.90;;;;;;4989679;28;20515;-51
2022/09/10 00:18:51;;;;;;;1.50;1.40;;;14.80;99.90;;;;;;4991472;28;20515;-50
2022/09/10 00:21:20;;;;;;;3.63;1.50;;;14.80;99.90;;;;;;4987138;28;20453;-51
2022/09/10 00:23:47;;;;;;;6.73;1.57;;;14.80;99.90;;;;;;4990089;28;20467;-51
2022/09/10 00:26:18;;;;;;;1.67;1.30;;;14.80;99.90;;;;;;4989945;28;20516;-51
2022/09/10 00:28:46;;;;;;;1.97;1.50;;;14.80;99.90;;;;;;4987420;28;20508;-52
2022/09/10 00:31:13;;;;;;;1.60;1.50;;;14.70;99.90;;;;;;4988581;28;20516;-51
2022/09/10 00:33:41;;;;;;;1.90;1.50;;;14.70;99.90;;;;;;4989696;28;20551;-51
2022/09/10 00:36:14;;;;;;;3.47;1.90;;;14.70;99.90;;;;;;4989835;28;20575;-53
2022/09/10 00:38:41;;;;;;;2.33;2.10;;;14.60;99.90;;;;;;4990343;28;20457;-53
2022/09/10 00:41:08;;;;;;;2.80;2.00;;;14.60;99.90;;;;;;4989070;28;20542;-53
2022/09/10 00:43:51;;;;;;;2.13;1.60;;;14.60;99.90;;;;;;4990509;28;20604;-53
2022/09/10 00:46:36;;;;;;;6.23;1.90;;;14.50;99.90;;;;;;4987086;28;20519;-52
2022/09/10 00:49:11;;;;;;;3.37;1.70;;;14.50;99.90;;;;;;4990427;28;20992;-53
2022/09/10 00:51:39;;;;;;;3.93;1.60;;;14.50;99.90;;;;;;4988526;28;20464;-53
2022/09/10 00:54:06;;;;;;;2.37;1.60;;;14.50;99.90;;;;;;4989366;28;20950;-52
2022/09/10 00:56:33;;;;;;;2.67;1.50;;;14.50;99.90;;;;;;4987393;28;20524;-52
2022/09/10 00:59:04;;;;;;;5.30;1.83;;;14.40;99.90;;;;;;4991227;28;20460;-52
2022/09/10 01:01:32;;;;;;;3.70;1.83;;;14.50;99.90;;;;;;4986122;28;20843;-52
2022/09/10 01:04:00;;;;;;;3.37;1.70;;;14.40;99.90;;;;;;4986309;28;20526;-53
2022/09/10 01:06:26;;;;;;;2.33;1.80;;;14.40;99.90;;;;;;4990039;28;20550;-54
2022/09/10 01:08:53;;;;;;;2.47;1.43;;;14.40;99.90;;;;;;4990900;28;20466;-52
2022/09/10 01:11:36;;;;;;;1.43;1.33;;;14.40;99.90;;;;;;4985740;28;21057;-53
2022/09/10 01:14:21;;;;;;;2.43;1.63;;;14.40;99.90;;;;;;4991479;28;20515;-52
2022/09/10 01:16:56;;;;;;;4.07;2.00;;;14.40;99.90;;;;;;4986943;28;20487;-53
2022/09/10 01:19:56;;;;;;;3.63;1.73;;;14.40;99.90;;;;;;4987321;28;20557;-53
2022/09/10 01:22:32;;;;;;;3.23;1.50;;;14.30;99.90;;;;;;4979628;28;20501;-53
2022/09/10 01:25:07;;;;;;;2.73;1.60;;;14.40;99.90;;;;;;4983242;28;20483;-53
2022/09/10 01:27:44;;;;;;;2.40;1.70;;;14.30;99.90;;;;;;4988861;28;20572;-53
2022/09/10 01:30:14;;;;;;;2.60;1.90;;;14.30;99.90;;;;;;4986174;28;20577;-52
2022/09/10 01:32:55;;;;;;;1.83;1.60;;;14.30;99.90;;;;;;4986154;28;20471;-53
2022/09/10 01:35:29;;;;;;;2.10;1.70;;;14.20;99.90;;;;;;4983110;28;20515;-53
2022/09/10 01:37:59;;;;;;;2.53;1.47;;;14.20;99.90;;;;;;4988995;28;20493;-52
2022/09/10 01:40:28;;;;;;;1.67;1.50;;;14.20;99.90;;;;;;4987588;28;20489;-53
2022/09/10 01:43:00;;;;;;;6.63;1.83;;;14.20;99.90;;;;;;4981020;28;20554;-51
2022/09/10 01:45:27;;;;;;;3.30;2.00;;;14.20;99.90;;;;;;4986583;28;20501;-53
2022/09/10 01:48:15;;;;;;;8.27;2.20;;;14.20;99.90;;;;;;4982375;28;20955;-53
2022/09/10 01:50:49;;;;;;;5.57;1.63;;;14.20;99.90;;;;;;4987656;28;20520;-52
2022/09/10 01:53:54;;;;;;;2.60;1.90;;;14.20;99.90;;;;;;4988325;28;20549;-53
2022/09/10 01:56:34;;;;;;;1.70;1.60;;;14.20;99.90;;;;;;4988908;28;20495;-53
2022/09/10 01:59:10;;;;;;;2.77;1.57;;;14.20;99.90;;;;;;4994478;28;20463;-53
2022/09/10 02:01:43;;;;;;;1.43;1.33;;;14.20;99.90;;;;;;4984624;28;20453;-53
2022/09/10 02:04:13;;;;;;;4.10;1.57;;;14.20;99.90;;;;;;4984066;28;20488;-53
2022/09/10 02:06:42;;;;;;;4.90;2.10;;;14.20;99.90;;;;;;4987325;28;20480;-53
2022/09/10 02:09:09;;;;;;;3.00;2.00;;;14.20;99.90;;;;;;4988742;28;20484;-52
2022/09/10 02:11:46;;;;;;;3.33;1.60;;;14.20;99.90;;;;;;4987952;28;20507;-53
2022/09/10 02:14:14;;;;;;;3.47;1.80;;;14.20;99.90;;;;;;4988750;28;20471;-53
2022/09/10 02:16:45;;;;;;;6.60;2.30;;;14.20;99.90;;;;;;4987101;28;20577;-53
2022/09/10 02:19:14;;;;;;;4.20;2.13;;;14.20;99.90;;;;;;4991741;28;20548;-53
2022/09/10 02:21:41;;;;;;;4.20;2.40;;;14.30;99.90;;;;;;4989206;28;20471;-52
2022/09/10 02:24:09;;;;;;;4.13;2.83;;;14.20;99.90;;;;;;4995872;28;20464;-54
2022/09/10 02:26:39;;;;;;;4.40;2.17;;;14.20;99.90;;;;;;4991105;28;21080;-53
2022/09/10 02:29:07;;;;;;;7.90;3.33;;;14.20;99.90;;;;;;4993288;28;20462;-53
2022/09/10 02:31:35;;;;;;;2.90;2.40;;;14.20;99.90;;;;;;4988485;28;20484;-52
2022/09/10 02:34:02;;;;;;;3.10;1.53;;;14.20;99.90;;;;;;4992697;28;20464;-52
2022/09/10 02:36:30;;;;;;;4.20;2.00;;;14.20;99.90;;;;;;4991161;28;20488;-53
2022/09/10 02:38:57;;;;;;;3.70;2.07;;;14.20;99.90;;;;;;4987569;28;21036;-52
2022/09/10 02:41:24;;;;;;;6.00;2.20;;;14.20;99.90;;;;;;4991019;28;20503;-53
2022/09/10 02:43:51;;;;;;;2.90;2.07;;;14.20;99.90;;;;;;4992839;28;20472;-53
2022/09/10 02:46:17;;;;;;;3.57;2.27;;;14.20;99.90;;;;;;4988883;28;20524;-53
2022/09/10 02:48:45;;;;;;;8.50;2.00;;;14.10;99.90;;;;;;4992302;28;20492;-52
2022/09/10 02:51:12;;;;;;;3.23;1.77;;;14.10;99.90;;;;;;4992280;28;20510;-52
2022/09/10 02:53:39;;;;;;;8.00;1.70;;;14.10;99.90;;;;;;4990948;28;20528;-52
2022/09/10 02:56:06;;;;;;;10.43;2.10;;;14.10;99.90;;;;;;4991501;28;20516;-53
2022/09/10 02:58:33;;;;;;;1.60;1.50;;;14.00;99.90;;;;;;4990971;28;20475;-52
2022/09/10 03:01:07;;;;;;;6.00;1.97;;;14.00;99.90;;;;;;4991006;28;20460;-53
2022/09/10 03:03:34;;;;;;;4.60;2.27;;;13.90;99.90;;;;;;4990427;28;20460;-53
2022/09/10 03:06:02;;;;;;;7.60;2.00;;;13.90;99.90;;;;;;4991421;28;20511;-52
2022/09/10 03:08:28;;;;;;;2.97;2.00;;;13.80;99.90;;;;;;4995263;28;20460;-52
2022/09/10 03:10:57;;;;;;;1.83;1.50;;;13.80;99.90;;;;;;4990999;28;20562;-53
2022/09/10 03:13:26;;;;;;;6.60;1.80;;;13.80;99.90;;;;;;4987919;28;20464;-52
2022/09/10 03:15:53;;;;;;;2.93;1.80;;;13.80;99.90;;;;;;4991070;28;21002;-53
2022/09/10 03:18:21;;;;;;;8.40;2.17;;;13.80;99.90;;;;;;4990458;28;20457;-53
2022/09/10 03:20:48;;;;;;;2.63;1.80;;;13.70;99.90;;;;;;4990001;28;20492;-53
2022/09/10 03:23:16;;;;;;;3.03;1.33;;;13.60;99.90;;;;;;4992333;28;20522;-52
2022/09/10 03:25:42;;;;;;;2.50;1.43;;;13.60;99.90;;;;;;4990528;28;20481;-53
2022/09/10 03:28:09;;;;;;;4.03;1.60;;;13.50;99.90;;;;;;4990359;28;20488;-52
2022/09/10 03:30:36;;;;;;;5.10;1.87;;;13.50;99.90;;;;;;4990574;28;21113;-52
2022/09/10 03:33:03;;;;;;;1.70;1.53;;;13.40;99.90;;;;;;4989179;28;20539;-53
2022/09/10 03:35:29;;;;;;;2.70;1.73;;;13.50;99.90;;;;;;4989276;28;20578;-53
2022/09/10 03:37:56;;;;;;;5.20;1.53;;;13.40;99.90;;;;;;4993040;28;20468;-53
2022/09/10 03:40:24;;;;;;;1.47;1.20;;;13.40;99.90;;;;;;4990083;28;20457;-53
2022/09/10 03:42:50;;;;;;;3.97;1.87;;;13.40;99.90;;;;;;4989517;28;20456;-52
2022/09/10 03:45:17;;;;;;;3.93;1.80;;;13.40;99.90;;;;;;4989121;28;20511;-53
2022/09/10 03:47:43;;;;;;;5.57;1.80;;;13.40;99.90;;;;;;4988788;28;20531;-54
2022/09/10 03:50:10;;;;;;;1.60;1.50;;;13.30;99.90;;;;;;4992252;28;20552;-53
2022/09/10 03:52:37;;;;;;;1.97;1.50;;;13.20;99.90;;;;;;4989787;28;20500;-53
2022/09/10 03:55:04;;;;;;;4.17;1.80;;;13.20;99.90;;;;;;4989386;28;20484;-53
2022/09/10 03:57:32;;;;;;;4.93;1.93;;;13.10;99.90;;;;;;4991522;28;20500;-53
2022/09/10 03:59:58;;;;;;;1.43;1.33;;;13.10;99.90;;;;;;4992071;28;20844;-54
2022/09/10 04:02:25;;;;;;;1.87;1.57;;;13.10;99.90;;;;;;4985291;28;20929;-52
2022/09/10 04:04:51;;;;;;;4.63;2.00;;;13.00;99.90;;;;;;4989833;28;20484;-53
2022/09/10 04:07:18;;;;;;;4.90;1.53;;;13.00;99.90;;;;;;4990317;28;20514;-52
2022/09/10 04:09:45;;;;;;;3.37;1.87;;;13.00;99.90;;;;;;4990967;28;21016;-53
2022/09/10 04:12:11;;;;;;;4.00;1.80;;;13.00;99.90;;;;;;4990442;28;20520;-53
2022/09/10 04:14:39;;;;;;;5.50;1.80;;;13.00;99.90;;;;;;4991415;28;20555;-53
2022/09/10 04:17:06;;;;;;;3.23;1.10;;;13.00;99.90;;;;;;4988470;28;20523;-53
2022/09/10 04:19:33;;;;;;;2.40;1.63;;;12.90;99.90;;;;;;4989910;28;20535;-53
2022/09/10 04:21:59;;;;;;;2.23;2.00;;;12.90;99.90;;;;;;4994631;28;20552;-51
2022/09/10 04:24:26;;;;;;;5.77;1.90;;;12.90;99.90;;;;;;4990523;28;20495;-51
2022/09/10 04:26:53;;;;;;;2.77;1.40;;;12.90;99.90;;;;;;4985764;28;20568;-51
2022/09/10 04:29:19;;;;;;;6.77;2.00;;;12.80;99.90;;;;;;4988691;28;20468;-50
2022/09/10 04:31:47;;;;;;;7.77;1.90;;;12.80;99.90;;;;;;4987268;28;20973;-50
2022/09/10 04:34:14;;;;;;;3.30;1.70;;;12.70;99.90;;;;;;4990709;28;20465;-50
2022/09/10 04:36:41;;;;;;;2.50;1.40;;;12.70;99.90;;;;;;4990199;28;20998;-51
2022/09/10 04:39:08;;;;;;;6.00;1.87;;;12.70;99.90;;;;;;4990860;28;20885;-50
2022/09/10 04:41:34;;;;;;;1.67;1.30;;;12.70;99.90;;;;;;4988355;28;20468;-51
2022/09/10 04:44:01;;;;;;;1.60;1.57;;;12.70;99.90;;;;;;4990741;28;20452;-50
2022/09/10 04:46:28;;;;;;;4.20;2.00;;;12.70;99.90;;;;;;4987099;28;20914;-51
2022/09/10 04:48:56;;;;;;;4.50;2.50;;;12.60;99.90;;;;;;4987240;28;20472;-50
2022/09/10 04:51:23;;;;;;;8.27;2.20;;;12.60;99.90;;;;;;4986059;28;20476;-52
2022/09/10 04:53:50;;;;;;;4.30;2.53;;;12.60;99.90;;;;;;4989455;28;20576;-50
2022/09/10 04:56:17;;;;;;;3.23;1.70;;;12.50;99.90;;;;;;4987304;28;20512;-51
2022/09/10 04:58:43;;;;;;;1.60;1.50;;;12.50;99.90;;;;;;4990803;28;20499;-50
2022/09/10 05:01:10;;;;;;;2.60;1.87;;;12.60;99.90;;;;;;4987698;28;21457;-51
2022/09/10 05:03:37;;;;;;;7.43;3.87;;;12.60;99.90;;;;;;4987653;28;20483;-50
2022/09/10 05:06:05;;;;;;;3.93;2.10;;;12.60;99.90;;;;;;4988670;28;20480;-51
2022/09/10 05:08:31;;;;;;;2.37;2.00;;;12.60;99.90;;;;;;4988481;28;20460;-51
2022/09/10 05:11:00;;;;;;;3.00;1.80;;;12.60;99.90;;;;;;4988761;28;20484;-51
2022/09/10 05:13:27;;;;;;;4.07;1.60;;;12.60;99.90;;;;;;4989149;28;20468;-51
2022/09/10 05:15:53;;;;;;;2.20;1.70;;;12.60;99.90;;;;;;4992326;28;20490;-50
2022/09/10 05:18:20;;;;;;;2.43;1.73;;;12.60;99.90;;;;;;4994286;28;20530;-52
2022/09/10 05:20:47;;;;;;;2.37;1.80;;;12.60;99.90;;;;;;4989066;28;20500;-51
2022/09/10 05:23:14;;;;;;;2.40;2.20;;;12.60;99.90;;;;;;4990185;28;20500;-50
2022/09/10 05:25:43;;;;;;;4.50;4.10;;;12.70;98.00;;;;;;4987854;28;20512;-51
2022/09/10 05:28:10;;;;;;;4.57;3.43;;;12.70;95.60;;;;;;4987778;28;20468;-51
2022/09/10 05:30:36;;;;;;;3.30;3.00;;;12.70;96.90;;;;;;4987166;28;20496;-52
2022/09/10 05:33:03;;;;;;;5.00;3.30;;;12.70;95.60;;;;;;4986702;28;20563;-52
2022/09/10 05:35:30;;;;;;;3.17;2.77;;;12.80;93.10;;;;;;4988106;28;20528;-52
2022/09/10 05:37:57;;;;;;;2.77;1.77;;;12.80;90.50;;;;;;4991762;28;20552;-51
2022/09/10 05:40:25;;;;;;;13.23;1.90;;;12.90;90.40;;;;;;4988613;28;21097;-53
2022/09/10 05:42:52;;;;;;;2.20;1.57;;;12.90;88.90;;;;;;4985050;28;20537;-51
2022/09/10 05:45:19;;;;;;;1.67;1.50;;;13.00;86.10;;;;;;4984260;28;20594;-52
2022/09/10 05:47:46;;;;;;;3.43;1.93;;;13.10;83.80;;;;;;4990160;28;20460;-51
2022/09/10 05:50:13;;;;;;;2.30;1.90;;;13.20;82.60;;;;;;4991077;28;20460;-51
2022/09/10 05:52:39;;;;;;;4.00;1.87;;;13.20;82.10;;;;;;4991310;28;21005;-51
2022/09/10 05:55:08;;;;;;;1.70;1.60;;;13.30;83.30;;;;;;4991937;28;21132;-51
2022/09/10 05:57:35;;;;;;;4.90;1.70;;;13.30;84.70;;;;;;4992595;28;20461;-52
2022/09/10 06:00:05;;;;;;;2.07;1.50;;;13.40;85.30;;;;;;4992547;28;20530;-51
2022/09/10 06:02:32;;;;;;;5.60;1.80;;;13.40;90.40;;;;;;4992765;28;20988;-51
2022/09/10 06:04:58;;;;;;;2.27;1.80;;;13.50;94.60;;;;;;4990427;28;20511;-52
2022/09/10 06:07:27;;;;;;;4.57;1.90;;;13.50;99.70;;;;;;4991036;28;20539;-52
2022/09/10 06:09:53;;;;;;;5.33;2.07;;;13.60;99.90;;;;;;4988144;28;20511;-52
2022/09/10 06:12:20;;;;;;;10.80;2.00;;;13.70;99.90;;;;;;4991942;28;20494;-51
2022/09/10 06:14:48;;;;;;;3.80;1.97;;;13.70;99.90;;;;;;4991492;28;20500;-51
2022/09/10 06:17:18;;;;;;;2.87;1.77;;;13.80;99.90;;;;;;4989051;28;20496;-53
2022/09/10 06:19:45;;;;;;;12.20;1.90;;;13.80;99.90;;;;;;4992611;28;21061;-52
2022/09/10 06:22:12;;;;;;;3.23;2.17;;;13.90;99.90;;;;;;4993291;28;20459;-52
2022/09/10 06:24:39;;;;;;;4.73;1.97;;;14.00;99.90;;;;;;4992053;28;20496;-52
2022/09/10 06:27:07;;;;;;;9.20;2.00;;;14.00;99.90;;;;;;4993722;28;20515;-52
2022/09/10 06:29:35;;;;;;;2.20;1.50;;;14.10;99.90;;;;;;4996051;28;20461;-51
2022/09/10 06:32:03;;;;;;;2.70;1.80;;;14.20;99.90;;;;;;4989001;28;20476;-52
2022/09/10 06:34:30;;;;;;;5.50;2.23;;;14.20;99.90;;;;;;4993788;28;20523;-51
2022/09/10 06:36:57;;;;;;;3.20;1.70;;;14.30;99.90;;;;;;4991456;28;20496;-52
2022/09/10 06:39:23;;;;;;;2.50;1.70;;;14.40;99.90;;;;;;4995183;28;20459;-52
2022/09/10 06:41:50;;;;;;;4.93;1.97;;;14.40;99.90;;;;;;4992366;28;20456;-52
2022/09/10 06:44:17;;;;;;;4.80;1.83;;;14.50;99.90;;;;;;4991652;28;20465;-52
2022/09/10 06:46:43;;;;;;;4.07;1.80;;;14.60;99.90;;;;;;4991294;28;20492;-51
2022/09/10 06:49:12;;;;;;;5.00;2.60;;;14.70;99.90;;;;;;4992471;28;20530;-52
2022/09/10 06:51:39;;;;;;;5.47;2.27;;;14.80;99.90;;;;;;4991806;28;20520;-52
2022/09/10 06:54:06;;;;;;;6.23;2.80;;;14.90;99.90;;;;;;4991697;28;20470;-51
2022/09/10 06:56:33;;;;;;;10.00;1.97;;;15.00;99.90;;;;;;4990768;28;20480;-51
2022/09/10 06:59:00;;;;;;;5.90;2.73;;;15.10;99.90;;;;;;4991737;28;20484;-51
2022/09/10 07:01:27;;;;;;;4.33;2.10;;;15.20;99.90;;;;;;4996656;28;20471;-52
2022/09/10 07:03:56;;;;;;;11.93;3.17;;;15.20;99.90;;;;;;4995204;28;20823;-51
2022/09/10 07:06:25;;;;;;;4.80;2.97;;;15.30;73.50;;;;;;4988936;28;20511;-50
2022/09/10 07:08:55;;;;;;;4.30;3.20;;;15.40;28.10;;;;;;4991621;28;20460;-51
2022/09/10 07:11:22;;;;;;;4.33;3.10;;;15.50;29.00;;;;;;4990159;28;20471;-52
2022/09/10 07:13:50;;;;;;;8.73;3.23;;;15.60;39.00;;;;;;4990676;28;20457;-51
2022/09/10 07:16:18;;;;;;;6.50;2.90;;;15.70;53.70;;;;;;4990414;28;20530;-52
2022/09/10 07:18:47;;;;;;;5.30;2.90;;;15.80;65.70;;;;;;4991954;28;20461;-51
2022/09/10 07:21:14;;;;;;;3.40;2.37;;;15.90;75.80;;;;;;4983773;28;20555;-53
2022/09/10 07:23:43;;;;;;;6.30;3.13;;;16.20;77.10;;;;;;4989399;28;20889;-51
2022/09/10 07:26:12;;;;;;;3.60;2.43;;;16.30;80.40;;;;;;4988420;28;20487;-51
2022/09/10 07:28:41;;;;;;;5.87;2.37;;;16.30;85.90;;;;;;4989202;28;20627;-51
2022/09/10 07:31:13;;;;;;;7.33;2.33;;;16.30;96.00;;;;;;4992586;28;20471;-52
2022/09/10 07:33:39;;;;;;;3.90;1.60;;;16.40;96.00;;;;;;4988325;28;20828;-52
2022/09/10 07:36:07;;;;;;;5.70;1.87;;;16.50;98.90;;;;;;4983847;28;20499;-52
2022/09/10 07:38:33;;;;;;;7.37;2.10;;;16.50;99.90;;;;;;4989577;28;20477;-51
2022/09/10 07:41:02;;;;;;;4.27;1.80;;;16.60;99.90;;;;;;4986781;28;20472;-51
2022/09/10 07:43:29;;;;;;;2.90;1.77;;;16.70;99.90;;;;;;4980180;28;21025;-52
2022/09/10 07:45:56;;;;;;;8.33;1.67;;;16.70;99.90;;;;;;4984126;28;20490;-52
2022/09/10 07:48:22;;;;;;;5.37;1.60;;;16.80;99.90;;;;;;4985069;28;21125;-52
2022/09/10 07:50:49;;;;;;;1.50;1.33;;;16.90;99.90;;;;;;4982681;28;20619;-52
2022/09/10 07:53:16;;;;;;;3.63;1.07;;;17.00;99.90;;;;;;4987364;28;20519;-52
2022/09/10 07:55:43;;;;;;;19.23;1.97;;;17.00;99.90;;;;;;4992359;28;20982;-51
2022/09/10 07:58:11;;;;;;;2.27;1.50;;;17.10;99.90;;;;;;4990349;28;20465;-51
2022/09/10 08:00:39;;;;;;;3.70;1.20;;;17.20;99.90;;;;;;4988696;28;20516;-52
2022/09/10 08:03:05;;;;;;;3.43;1.23;;;17.30;99.90;;;;;;4982069;28;20489;-51
2022/09/10 08:05:32;;;;;;;1.70;1.03;;;17.30;99.90;;;;;;4988498;28;20532;-52
2022/09/10 08:07:58;;;;;;;2.80;1.77;;;17.40;99.90;;;;;;4988843;28;20507;-52
2022/09/10 08:10:25;;;;;;;3.77;2.20;;;17.50;99.90;;;;;;4988544;28;20547;-51
2022/09/10 08:12:52;;;;;;;3.03;1.20;;;17.50;99.90;;;;;;4990696;28;20512;-51
2022/09/10 08:15:20;;;;;;;1.83;1.00;;;17.60;99.90;;;;;;4987491;28;20827;-51
2022/09/10 08:17:46;;;;;;;4.70;1.47;;;17.70;99.90;;;;;;4988848;28;20509;-52
2022/09/10 08:20:13;;;;;;;2.30;1.10;;;17.70;99.90;;;;;;4991734;28;20460;-52
2022/09/10 08:22:39;;;;;;;2.43;1.70;;;17.80;99.90;;;;;;4983430;28;20528;-52
2022/09/10 08:25:07;;;;;;;8.27;1.50;;;17.90;99.90;;;;;;4988379;28;20532;-51
2022/09/10 08:27:35;;;;;;;1.77;1.53;;;18.00;99.90;;;;;;4985386;28;20468;-51
2022/09/10 08:30:01;;;;;;;4.00;2.10;;;18.00;99.90;;;;;;4987048;28;21419;-52
2022/09/10 08:32:30;;;;;;;3.00;1.40;;;18.10;99.90;;;;;;4989836;28;20484;-50
2022/09/10 08:34:57;;;;;;;2.17;1.37;;;18.10;99.90;;;;;;4990553;28;20463;-51
2022/09/10 08:37:24;;;;;;;4.30;1.30;;;18.20;99.90;;;;;;4988507;28;20515;-52
2022/09/10 08:39:50;;;;;;;4.40;1.30;;;18.30;99.90;;;;;;4987847;28;20464;-52
2022/09/10 08:42:22;;;;;;;2.33;1.10;;;18.30;99.90;;;;;;4984541;28;20826;-51
2022/09/10 08:44:52;;;;;;;2.60;1.20;;;18.40;99.90;;;;;;4981733;28;20540;-52
2022/09/10 08:47:26;;;;;;;3.80;1.17;;;18.50;99.90;;;;;;4988204;28;20475;-52
2022/09/10 08:49:59;;;;;;;3.23;1.30;;;18.70;99.90;;;;;;4985136;28;20531;-51
2022/09/10 08:52:32;;;;;;;3.70;1.37;;;18.70;99.90;;;;;;4984222;28;20485;-52
2022/09/10 08:55:08;;;;;;;2.13;1.10;;;18.80;99.90;;;;;;4985686;28;20472;-51
2022/09/10 08:57:40;;;;;;;2.47;1.30;;;18.90;99.90;;;;;;4978742;28;21050;-51
2022/09/10 09:00:12;;;;;;;2.70;1.30;;;19.00;99.90;;;;;;4989321;28;20464;-51
2022/09/10 09:02:48;;;;;;;3.17;1.17;;;19.00;99.90;;;;;;4987912;28;20452;-52
2022/09/10 09:05:18;;;;;;;4.63;1.57;;;19.10;99.90;;;;;;4987518;28;20993;-51
2022/09/10 09:07:47;;;;;;;4.77;1.40;;;19.20;99.90;;;;;;4991193;28;20457;-52
2022/09/10 09:10:18;;;;;;;2.50;1.20;;;19.40;99.90;;;;;;4990806;28;20488;-52
2022/09/10 09:12:56;;;;;;;8.20;1.90;;;19.70;99.90;;;;;;4975317;28;21155;-51
2022/09/10 09:15:28;;;;;;;2.70;1.43;;;19.60;24.80;;;;;;4983712;28;20998;-52
2022/09/10 09:18:09;;;;;;;1.47;1.10;;;19.70;31.40;;;;;;4986523;28;20519;-52
2022/09/10 09:20:45;;;;;;;6.30;1.63;;;19.70;35.30;;;;;;4984842;28;20547;-52
2022/09/10 09:23:19;;;;;;;6.57;1.47;;;19.70;35.10;;;;;;4979295;28;20460;-53
2022/09/10 09:25:48;;;;;;;4.83;0.87;;;19.60;24.30;;;;;;4985875;28;20480;-52
2022/09/10 09:28:25;;;;;;;1.37;1.00;;;19.70;99.90;;;;;;4980878;28;20458;-52
2022/09/10 09:30:55;;;;;;;2.37;1.30;;;19.70;94.50;;;;;;4986255;28;20507;-51
2022/09/10 09:33:24;;;;;;;4.33;1.17;;;19.80;28.20;;;;;;4979079;28;20606;-53
2022/09/10 09:35:56;;;;;;;4.60;1.33;;;19.90;43.00;;;;;;4980840;28;20488;-51
2022/09/10 09:38:25;;;;;;;2.70;1.27;;;20.10;34.90;;;;;;4981954;28;20461;-52
2022/09/10 09:40:55;;;;;;;5.87;1.03;;;20.20;55.10;;;;;;4979156;28;22345;-52
2022/09/10 09:43:32;;;;;;;2.13;1.33;;;20.20;58.20;;;;;;4982988;28;20488;-52
2022/09/10 09:45:59;;;;;;;5.37;1.20;;;20.30;40.40;;;;;;4979756;28;20579;-52
2022/09/10 09:48:33;;;;;;;1.10;1.00;;;20.40;61.50;;;;;;4981669;28;20558;-53
2022/09/10 09:51:02;;;;;;;4.00;1.20;;;20.50;64.30;;;;;;4983106;28;20488;-51
2022/09/10 09:53:30;;;;;;;4.87;0.97;;;20.60;70.80;;;;;;4983450;28;20563;-51
2022/09/10 09:55:59;;;;;;;5.50;1.53;;;20.70;58.80;;;;;;4985928;28;20481;-51
2022/09/10 09:58:28;;;;;;;2.40;1.23;;;20.90;90.60;;;;;;4979878;28;20974;-52
2022/09/10 10:01:16;;;;;;;0.70;0.60;;;20.90;93.30;;;;;;4988938;28;20457;-52
2022/09/10 10:03:52;;;;;;;2.40;0.90;;;20.90;80.70;;;;;;4984994;28;20460;-51
2022/09/10 10:06:23;;;;;;;8.53;1.17;;;21.00;93.40;;;;;;4979530;28;21024;-52
2022/09/10 10:09:01;;;;;;;1.60;1.10;;;21.20;98.40;;;;;;4986641;28;20464;-51
2022/09/10 10:11:59;;;;;;;1.60;1.03;;;21.40;99.90;;;;;;4990116;28;20578;-52
2022/09/10 10:14:38;;;;;;;3.67;1.50;;;21.30;99.90;;;;;;4923195;29;20493;-52
2022/09/10 10:17:37;;;;;;;5.53;1.57;;;21.60;99.90;;;;;;4974979;28;20933;-52
2022/09/10 10:20:07;;;;;;;3.83;1.13;;;21.40;91.80;;;;;;4984681;28;20464;-52
2022/09/10 10:22:37;;;;;;;1.43;0.77;;;21.30;96.90;;;;;;4982367;28;20933;-52
2022/09/10 10:25:25;;;;;;;2.77;1.27;;;21.40;87.80;;;;;;4982565;28;21107;-53
2022/09/10 10:27:53;;;;;;;2.50;1.20;;;21.30;86.40;;;;;;4989332;28;20448;-52
2022/09/10 10:30:26;;;;;;;4.90;0.90;;;21.40;99.90;;;;;;4987393;28;20523;-52
2022/09/10 10:32:54;;;;;;;2.20;0.80;;;21.40;94.00;;;;;;4980852;28;20844;-52
2022/09/10 10:35:35;;;;;;;5.13;1.33;;;21.40;95.40;;;;;;4985412;28;20499;-52
2022/09/10 10:38:25;;;;;;;2.20;0.80;;;21.30;99.90;;;;;;4990339;28;20925;-52
2022/09/10 10:41:06;;;;;;;0.93;0.83;;;21.20;94.20;;;;;;4993764;28;20456;-52
2022/09/10 10:43:46;;;;;;;3.73;0.90;;;21.40;99.90;;;;;;4986271;28;20492;-53
2022/09/10 10:46:16;;;;;;;4.20;1.03;;;21.20;99.90;;;;;;4992096;28;20574;-50
2022/09/10 10:48:58;;;;;;;2.63;1.20;;;21.30;99.80;;;;;;4996955;28;21033;-51
2022/09/10 10:51:34;;;;;;;3.70;1.10;;;21.40;99.90;;;;;;4999355;28;20531;-50
2022/09/10 10:54:17;;;;;;;1.37;0.70;;;21.50;99.90;;;;;;4998423;28;20483;-51
2022/09/10 10:56:55;;;;;;;2.33;1.17;;;21.50;99.90;;;;;;4989999;28;20492;-53
2022/09/10 10:59:38;;;;;;;2.20;1.13;;;21.30;99.90;;;;;;4994577;28;20498;-52
2022/09/10 11:02:13;;;;;;;1.10;0.70;;;21.00;99.90;;;;;;4993753;28;20441;-52
2022/09/10 11:04:45;;;;;;;1.23;0.83;;;20.90;94.00;;;;;;4996133;28;20514;-52
2022/09/10 11:07:18;;;;;;;2.77;0.97;;;21.00;91.60;;;;;;4994546;28;21009;-51
2022/09/10 11:09:50;;;;;;;1.70;0.90;;;20.90;99.90;;;;;;4995244;28;20885;-52
2022/09/10 11:12:24;;;;;;;1.17;0.70;;;20.70;98.10;;;;;;4993882;28;20453;-53
2022/09/10 11:14:57;;;;;;;2.00;1.17;;;20.50;85.30;;;;;;4988728;28;22204;-52
2022/09/10 11:17:29;;;;;;;2.67;0.80;;;20.40;86.10;;;;;;4990863;28;20500;-52
2022/09/10 11:20:03;;;;;;;1.13;0.83;;;20.30;95.60;;;;;;4997083;28;20445;-51
2022/09/10 11:22:35;;;;;;;1.67;1.00;;;20.10;86.30;;;;;;4988430;28;20504;-51
2022/09/10 11:25:15;;;;;;;1.30;1.20;;;20.00;75.80;;;;;;4990420;28;20464;-51
2022/09/10 11:27:45;;;;;;;1.03;0.93;;;20.00;79.70;;;;;;4994284;28;20480;-52
2022/09/10 11:30:15;;;;;;;1.40;1.27;;;20.00;77.30;;;;;;4987769;28;20519;-52
2022/09/10 11:32:46;;;;;;;2.37;1.03;;;20.10;73.40;;;;;;4989808;28;20456;-52
2022/09/10 11:35:20;;;;;;;3.97;1.00;;;20.40;71.50;;;;;;4991192;28;20484;-52
2022/09/10 11:38:00;;;;;;;3.33;1.50;;;20.70;82.40;;;;;;4990104;28;20460;-51
2022/09/10 11:40:34;;;;;;;1.80;1.20;;;21.00;96.60;;;;;;4992135;28;20503;-53
2022/09/10 11:43:06;;;;;;;3.63;1.77;;;21.20;89.10;;;;;;4990054;28;20463;-52
2022/09/10 11:45:41;;;;;;;4.30;0.97;;;21.40;98.20;;;;;;4980848;28;20503;-52
2022/09/10 11:48:17;;;;;;;5.50;1.10;;;21.60;98.70;;;;;;4987537;28;20484;-52
2022/09/10 11:50:50;;;;;;;2.77;0.90;;;21.60;99.90;;;;;;4990761;28;20507;-53
2022/09/10 11:53:19;;;;;;;2.30;1.07;;;21.60;99.90;;;;;;4992054;28;20508;-51
2022/09/10 11:56:03;;;;;;;1.53;0.87;;;21.70;99.90;;;;;;4989533;28;20480;-51
2022/09/10 11:58:39;;;;;;;1.33;0.90;;;21.60;99.90;;;;;;4991911;28;20642;-52
2022/09/10 12:01:12;;;;;;;1.83;0.90;;;21.60;99.90;;;;;;4988131;28;20772;-51
2022/09/10 12:04:00;;;;;;;3.57;1.07;;;21.60;99.90;;;;;;4986349;28;20538;-51
2022/09/10 12:06:37;;;;;;;2.30;1.33;;;21.50;99.90;;;;;;4992553;28;20484;-52
2022/09/10 12:09:13;;;;;;;2.10;0.80;;;21.20;99.90;;;;;;4988843;28;20836;-51
2022/09/10 12:11:51;;;;;;;1.10;0.97;;;21.20;95.80;;;;;;4985110;28;20487;-53
2022/09/10 12:14:20;;;;;;;2.30;1.00;;;21.20;92.10;;;;;;4988482;28;20492;-52
2022/09/10 12:16:50;;;;;;;2.93;1.07;;;21.10;94.20;;;;;;4992972;28;20469;-54
2022/09/10 12:19:24;;;;;;;3.13;1.00;;;21.10;95.30;;;;;;4989971;28;20929;-51
2022/09/10 12:21:56;;;;;;;0.80;0.63;;;21.10;89.60;;;;;;4990313;28;20488;-54
2022/09/10 12:24:28;;;;;;;2.13;0.93;;;21.10;96.80;;;;;;4984561;28;20506;-52
2022/09/10 12:26:57;;;;;;;2.23;0.90;;;21.00;92.30;;;;;;4986002;28;20547;-52
2022/09/10 12:29:30;;;;;;;0.67;0.67;;;20.90;86.50;;;;;;4985903;28;20492;-53
2022/09/10 12:32:27;;;;;;;2.40;0.73;;;20.80;91.20;;;;;;4992935;28;20504;-52
2022/09/10 12:35:27;;;;;;;1.47;0.80;;;20.60;94.70;;;;;;4991661;28;20492;-52
2022/09/10 12:38:27;;;;;;;0.97;0.60;;;20.50;79.20;;;;;;4984313;28;20465;-52
2022/09/10 12:40:55;;;;;;;0.70;0.70;;;20.30;61.80;;;;;;4990339;28;20461;-54
2022/09/10 12:43:54;;;;;;;0.70;0.70;;;20.30;69.50;;;;;;4982127;28;20457;-52
2022/09/10 12:46:24;;;;;;;1.73;0.87;;;20.20;59.30;;;;;;4983072;28;20493;-52
2022/09/10 12:49:06;;;;;;;5.20;0.87;;;20.20;47.60;;;;;;4984047;28;20479;-53
2022/09/10 12:51:42;;;;;;;3.80;1.20;;;20.10;50.60;;;;;;4986133;28;20523;-52
2022/09/10 12:54:37;;;;;;;0.80;0.80;;;20.00;58.30;;;;;;4983320;28;20515;-52
2022/09/10 12:57:24;;;;;;;4.77;1.17;;;20.00;60.60;;;;;;4985639;28;20500;-53
2022/09/10 13:00:10;;;;;;;1.57;1.10;;;20.00;63.70;;;;;;4961878;23;1005319;-50
2022/09/10 13:02:42;;;;;;;1.53;1.10;;;20.10;57.10;;;;;;4994127;28;20254;-50
2022/09/10 13:05:30;;;;;;;5.03;1.37;;;20.30;67.60;;;;;;4995770;28;20469;-51